Time;durP1;ratioP1;P1;durP2;ratioP2;P2;SDS_P1;SDS_P2;PMS_P1;PMS_P2;Temp;Humidity;BMP_temperature;BMP_pressure;BME280_temperature;BME280_humidity;BME280_pressure;Samples;Min_cycle;Max_cycle;Signal;HPM_P1;HPM_P2
2023/05/18 00:00:25;;;;;;;;;;;;;;;24.98;28.43;102141.63;4125693;28;19980;-70
2023/05/18 00:02:27;;;;;;;;;;;;;;;25.02;28.18;102149.38;4115150;28;19988;-70
2023/05/18 00:04:30;;;;;;;;;;;;;;;25.03;28.43;102147.50;4120782;28;19925;-71
2023/05/18 00:06:31;;;;;;;;;;;;;;;25.03;28.35;102148.41;4120724;28;20033;-70
2023/05/18 00:08:33;;;;;;;;;;;;;;;25.04;28.59;102144.72;4114539;28;19922;-70
2023/05/18 00:10:35;;;;;;;;;;;;;;;25.05;28.22;102148.28;4125846;28;19943;-70
2023/05/18 00:12:36;;;;;;;;;;;;;;;25.05;28.31;102142.88;4115078;28;19922;-70
2023/05/18 00:14:38;;;;;;;;;;;;;;;25.06;28.52;102141.91;4118651;28;19999;-70
2023/05/18 00:16:40;;;;;;;;;;;;;;;25.07;28.51;102137.38;4122352;28;20029;-70
2023/05/18 00:18:43;;;;;;;;;;;;;;;25.06;28.11;102141.91;4113745;28;19929;-70
2023/05/18 00:20:45;;;;;;;;;;;;;;;25.06;28.13;102135.69;4119213;28;20348;-71
2023/05/18 00:22:49;;;;;;;;;;;;;;;25.05;28.28;102140.19;4114975;28;19950;-70
2023/05/18 00:24:51;;;;;;;;;;;;;;;25.04;28.66;102138.47;4117992;28;20392;-71
2023/05/18 00:26:52;;;;;;;;;;;;;;;25.03;28.54;102139.44;4130721;28;19937;-70
2023/05/18 00:28:54;;;;;;;;;;;;;;;25.03;28.55;102140.31;4129440;28;20382;-71
2023/05/18 00:30:56;;;;;;;;;;;;;;;25.04;28.55;102135.78;4120144;28;20302;-70
2023/05/18 00:32:57;;;;;;;;;;;;;;;25.04;28.42;102139.34;4132309;28;19929;-70
2023/05/18 00:34:59;;;;;;;;;;;;;;;25.04;28.37;102133.97;4130118;28;20299;-69
2023/05/18 00:37:01;;;;;;;;;;;;;;;25.06;28.51;102128.47;4128264;28;20016;-70
2023/05/18 00:39:03;;;;;;;;;;;;;;;25.07;28.40;102127.50;4128077;28;19925;-70
2023/05/18 00:41:05;;;;;;;;;;;;;;;25.07;28.28;102132.88;4124825;28;19922;-70
2023/05/18 00:43:06;;;;;;;;;;;;;;;25.08;28.45;102136.41;4131015;28;19926;-70
2023/05/18 00:45:08;;;;;;;;;;;;;;;25.07;28.28;102127.50;4132655;28;20013;-69
2023/05/18 00:47:10;;;;;;;;;;;;;;;25.06;28.31;102124.94;4122904;28;19960;-70
2023/05/18 00:49:12;;;;;;;;;;;;;;;25.07;28.18;102137.38;4133035;28;19922;-70
2023/05/18 00:51:13;;;;;;;;;;;;;;;25.06;28.33;102128.47;4126286;28;19972;-70
2023/05/18 00:53:15;;;;;;;;;;;;;;;25.06;28.24;102136.53;4129273;28;19922;-70
2023/05/18 00:55:17;;;;;;;;;;;;;;;25.06;28.75;102138.38;4132565;28;20378;-70
2023/05/18 00:57:19;;;;;;;;;;;;;;;25.07;28.51;102138.25;4122930;28;19937;-70
2023/05/18 00:59:20;;;;;;;;;;;;;;;25.07;28.33;102138.25;4132934;28;19997;-69
2023/05/18 01:01:29;;;;;;;;;;;;;;;25.07;28.34;102135.56;4127515;28;19937;-69
2023/05/18 01:03:32;;;;;;;;;;;;;;;25.10;28.28;102126.41;4128646;28;19921;-69
2023/05/18 01:05:33;;;;;;;;;;;;;;;25.10;28.59;102134.47;4132231;28;20028;-70
2023/05/18 01:07:36;;;;;;;;;;;;;;;25.09;28.18;102138.13;4122003;28;19940;-70
2023/05/18 01:09:38;;;;;;;;;;;;;;;25.09;28.50;102133.59;4133750;28;19976;-70
2023/05/18 01:11:39;;;;;;;;;;;;;;;25.08;28.36;102136.41;4128138;28;19922;-70
2023/05/18 01:14:01;;;;;;;;;;;;;;;25.09;28.21;102130.91;4126657;28;19921;-70
2023/05/18 01:16:06;;;;;;;;;;;;;;;25.08;28.58;102139.09;4114162;28;19930;-70
2023/05/18 01:18:09;;;;;;;;;;;;;;;25.07;28.72;102130.19;4103500;28;19953;-70
2023/05/18 01:20:14;;;;;;;;;;;;;;;25.07;28.45;102126.63;4115468;28;20050;-70
2023/05/18 01:22:28;;;;;;;;;;;;;;;25.07;28.41;102123.91;4107837;28;20312;-70
2023/05/18 01:24:34;;;;;;;;;;;;;;;25.07;28.60;102123.91;4112575;28;19922;-69
2023/05/18 01:26:40;;;;;;;;;;;;;;;25.07;28.57;102121.22;4095282;29;19962;-68
2023/05/18 01:28:45;;;;;;;;;;;;;;;25.08;28.50;102122.94;4093032;28;19926;-69
2023/05/18 01:30:46;;;;;;;;;;;;;;;25.07;28.41;102132.00;4115522;28;19926;-72
2023/05/18 01:32:48;;;;;;;;;;;;;;;25.07;28.52;102124.81;4105960;28;19926;-71
2023/05/18 01:34:50;;;;;;;;;;;;;;;25.09;28.60;102121.97;4112251;28;19922;-71
2023/05/18 01:36:51;;;;;;;;;;;;;;;25.08;28.25;102122.94;4112356;28;19928;-71
2023/05/18 01:38:54;;;;;;;;;;;;;;;25.05;28.33;102134.81;4107211;28;19973;-71
2023/05/18 01:41:02;;;;;;;;;;;;;;;25.04;28.64;102127.72;4114800;28;20467;-71
2023/05/18 01:43:08;;;;;;;;;;;;;;;25.03;28.64;102126.88;4106261;28;19973;-71
2023/05/18 01:45:16;;;;;;;;;;;;;;;25.03;28.59;102132.25;4112050;28;19922;-72
2023/05/18 01:47:18;;;;;;;;;;;;;;;25.05;28.33;102134.81;4113627;28;19969;-71
2023/05/18 01:49:26;;;;;;;;;;;;;;;25.04;28.35;102135.78;4103025;28;19928;-72
2023/05/18 01:51:30;;;;;;;;;;;;;;;25.06;28.45;102133.00;4115278;28;20435;-71
2023/05/18 01:53:36;;;;;;;;;;;;;;;25.04;28.42;102133.97;4089744;29;19981;-71
2023/05/18 01:55:39;;;;;;;;;;;;;;;25.03;28.59;102129.56;4114538;28;19922;-70
2023/05/18 01:57:43;;;;;;;;;;;;;;;25.03;28.58;102124.16;4114671;28;19929;-71
2023/05/18 01:59:45;;;;;;;;;;;;;;;25.03;28.52;102128.69;4106371;28;19922;-72
2023/05/18 02:01:46;;;;;;;;;;;;;;;25.03;28.46;102131.38;4116940;28;19925;-71
2023/05/18 02:03:48;;;;;;;;;;;;;;;25.02;28.30;102135.06;4107713;28;19922;-70
2023/05/18 02:05:50;;;;;;;;;;;;;;;25.00;28.51;102132.47;4113701;28;19922;-70
2023/05/18 02:07:51;;;;;;;;;;;;;;;24.99;28.49;102138.81;4114451;28;20305;-71
2023/05/18 02:09:53;;;;;;;;;;;;;;;25.00;28.19;102135.16;4105363;28;20434;-65
2023/05/18 02:11:54;;;;;;;;;;;;;;;24.99;28.24;102137.97;4117000;28;19925;-71
2023/05/18 02:13:56;;;;;;;;;;;;;;;24.99;28.29;102129.88;4109044;28;19929;-70
2023/05/18 02:15:58;;;;;;;;;;;;;;;25.00;28.31;102134.31;4111768;28;19972;-71
2023/05/18 02:17:59;;;;;;;;;;;;;;;24.99;28.42;102130.75;4114267;28;20311;-70
2023/05/18 02:20:01;;;;;;;;;;;;;;;25.00;28.38;102128.91;4105884;28;19929;-70
2023/05/18 02:22:05;;;;;;;;;;;;;;;24.99;28.15;102127.19;4116762;28;19922;-70
2023/05/18 02:24:07;;;;;;;;;;;;;;;24.99;28.38;102136.13;4093158;29;19934;-70
2023/05/18 02:26:08;;;;;;;;;;;;;;;24.99;28.45;102135.28;4109939;28;19979;-70
2023/05/18 02:28:10;;;;;;;;;;;;;;;24.97;28.36;102140.78;4114986;28;20374;-70
2023/05/18 02:30:13;;;;;;;;;;;;;;;24.97;28.34;102135.41;4111794;28;20025;-70
2023/05/18 02:32:16;;;;;;;;;;;;;;;24.96;28.26;102132.78;4100522;29;20161;-70
2023/05/18 02:34:18;;;;;;;;;;;;;;;24.97;28.30;102138.09;4104488;28;20378;-70
2023/05/18 02:36:21;;;;;;;;;;;;;;;24.95;28.55;102137.34;4107618;28;20266;-71
2023/05/18 02:38:23;;;;;;;;;;;;;;;24.94;28.27;102143.69;4105143;28;19934;-71
2023/05/18 02:40:24;;;;;;;;;;;;;;;24.96;28.28;102138.19;4103730;28;19962;-70
2023/05/18 02:42:26;;;;;;;;;;;;;;;24.96;28.33;102133.69;4084443;29;19923;-69
2023/05/18 02:44:27;;;;;;;;;;;;;;;24.97;28.30;102137.22;4094336;28;20345;-71
2023/05/18 02:46:29;;;;;;;;;;;;;;;24.98;28.38;102137.13;4109141;28;20288;-70
2023/05/18 02:48:31;;;;;;;;;;;;;;;24.97;28.25;102135.41;4099045;29;20316;-71
2023/05/18 02:50:32;;;;;;;;;;;;;;;24.98;28.51;102136.25;4110105;28;20012;-70
2023/05/18 02:52:34;;;;;;;;;;;;;;;24.97;28.27;102132.72;4101619;28;19969;-70
2023/05/18 02:54:35;;;;;;;;;;;;;;;24.96;28.55;102138.19;4100745;28;19927;-70
2023/05/18 02:56:37;;;;;;;;;;;;;;;24.94;28.47;102141.00;4109736;28;20274;-70
2023/05/18 02:58:38;;;;;;;;;;;;;;;24.95;28.38;102141.88;4099269;29;19923;-70
2023/05/18 03:00:40;;;;;;;;;;;;;;;24.93;28.38;102133.88;4108392;28;19940;-71
2023/05/18 03:02:43;;;;;;;;;;;;;;;24.94;28.29;102140.16;4103233;28;19922;-70
2023/05/18 03:04:46;;;;;;;;;;;;;;;24.94;28.32;102141.00;4100985;28;20013;-70
2023/05/18 03:06:51;;;;;;;;;;;;;;;24.95;28.37;102147.25;4110590;28;19949;-70
2023/05/18 03:08:53;;;;;;;;;;;;;;;24.95;28.13;102136.50;4098325;29;19950;-71
2023/05/18 03:10:55;;;;;;;;;;;;;;;24.96;28.32;102143.56;4107257;28;19932;-71
2023/05/18 03:12:56;;;;;;;;;;;;;;;24.96;28.49;102132.78;4104047;28;19922;-70
2023/05/18 03:14:57;;;;;;;;;;;;;;;24.96;28.36;102132.78;4100890;28;19930;-69
2023/05/18 03:17:00;;;;;;;;;;;;;;;24.95;28.46;102134.66;4110269;28;19922;-70
2023/05/18 03:19:01;;;;;;;;;;;;;;;24.95;28.29;102136.50;4099057;29;19985;-70
2023/05/18 03:21:03;;;;;;;;;;;;;;;24.94;28.23;102134.78;4105537;28;19922;-70
2023/05/18 03:23:05;;;;;;;;;;;;;;;24.95;28.15;102131.09;4106760;28;19964;-70
2023/05/18 03:25:08;;;;;;;;;;;;;;;24.93;28.31;102130.34;4116735;28;20031;-70
2023/05/18 03:27:15;;;;;;;;;;;;;;;24.92;28.33;102137.56;4127529;28;19968;-70
2023/05/18 03:29:16;;;;;;;;;;;;;;;24.93;28.35;102138.44;4114904;28;19926;-71
2023/05/18 03:31:18;;;;;;;;;;;;;;;24.93;28.44;102136.59;4120622;28;20387;-70
2023/05/18 03:33:19;;;;;;;;;;;;;;;24.93;28.26;102136.59;4121943;28;19922;-71
2023/05/18 03:35:21;;;;;;;;;;;;;;;24.95;28.48;102134.66;4115269;28;20427;-71
2023/05/18 03:37:22;;;;;;;;;;;;;;;24.94;28.45;102129.38;4119201;28;19929;-71
2023/05/18 03:39:24;;;;;;;;;;;;;;;24.94;28.08;102124.84;4116532;28;20436;-70
2023/05/18 03:41:26;;;;;;;;;;;;;;;24.95;28.32;102128.41;4118815;28;19949;-70
2023/05/18 03:43:28;;;;;;;;;;;;;;;24.94;28.52;102127.53;4123361;28;20344;-70
2023/05/18 03:45:30;;;;;;;;;;;;;;;24.93;28.27;102124.97;4115286;28;19926;-70
2023/05/18 03:47:32;;;;;;;;;;;;;;;24.93;28.46;102128.50;4126238;28;20716;-70
2023/05/18 03:49:34;;;;;;;;;;;;;;;24.94;28.34;102132.06;4115061;28;19922;-70
2023/05/18 03:51:35;;;;;;;;;;;;;;;24.92;28.21;102128.63;4116724;28;19929;-70
2023/05/18 03:53:37;;;;;;;;;;;;;;;24.93;28.35;102124.97;4124909;28;19922;-70
2023/05/18 03:55:38;;;;;;;;;;;;;;;24.92;28.59;102128.63;4114995;28;20028;-71
2023/05/18 03:57:40;;;;;;;;;;;;;;;24.93;28.51;102122.28;4124347;28;19922;-71
2023/05/18 03:59:42;;;;;;;;;;;;;;;24.92;28.38;102129.47;4116585;28;20355;-70
2023/05/18 04:01:43;;;;;;;;;;;;;;;24.93;28.22;102130.34;4116099;28;19930;-70
2023/05/18 04:03:45;;;;;;;;;;;;;;;24.93;28.40;102131.19;4126131;28;19934;-71
2023/05/18 04:05:48;;;;;;;;;;;;;;;24.93;28.09;102133.03;4114946;28;19933;-71
2023/05/18 04:07:50;;;;;;;;;;;;;;;24.93;28.19;102133.03;4122284;28;19949;-71
2023/05/18 04:09:52;;;;;;;;;;;;;;;24.93;28.27;102133.88;4118005;28;19976;-71
2023/05/18 04:11:54;;;;;;;;;;;;;;;24.92;28.23;102131.31;4116464;28;19952;-71
2023/05/18 04:13:56;;;;;;;;;;;;;;;24.92;28.35;102136.69;4125593;28;20005;-70
2023/05/18 04:15:58;;;;;;;;;;;;;;;24.92;28.41;102139.41;4114875;28;19933;-70
2023/05/18 04:18:00;;;;;;;;;;;;;;;24.90;28.27;102138.63;4121338;28;19921;-71
2023/05/18 04:20:11;;;;;;;;;;;;;;;24.90;28.10;102139.53;4119450;28;19972;-70
2023/05/18 04:22:13;;;;;;;;;;;;;;;24.90;28.54;102144.91;4115828;28;19922;-70
2023/05/18 04:24:15;;;;;;;;;;;;;;;24.91;28.60;102145.75;4125526;28;19922;-71
2023/05/18 04:26:18;;;;;;;;;;;;;;;24.91;28.38;102143.94;4122481;28;20461;-72
2023/05/18 04:28:20;;;;;;;;;;;;;;;24.91;28.47;102149.31;4125864;28;19926;-71
2023/05/18 04:30:22;;;;;;;;;;;;;;;24.93;28.39;102149.19;4120198;28;20028;-72
2023/05/18 04:32:27;;;;;;;;;;;;;;;24.91;28.29;102149.31;4116018;28;20008;-70
2023/05/18 04:34:29;;;;;;;;;;;;;;;24.91;28.18;102157.38;4110695;28;19938;-72
2023/05/18 04:36:30;;;;;;;;;;;;;;;24.90;28.53;102155.66;4130803;28;20391;-72
2023/05/18 04:38:33;;;;;;;;;;;;;;;24.89;28.15;102153.94;4125325;28;19925;-72
2023/05/18 04:40:36;;;;;;;;;;;;;;;24.89;28.32;102156.63;4121133;28;19922;-72
2023/05/18 04:42:43;;;;;;;;;;;;;;;24.87;28.37;102154.06;4115133;28;19926;-72
2023/05/18 04:44:47;;;;;;;;;;;;;;;24.88;28.17;102158.44;4121762;28;19968;-72
2023/05/18 04:46:49;;;;;;;;;;;;;;;24.88;28.13;102162.97;4114926;28;19965;-72
2023/05/18 04:48:51;;;;;;;;;;;;;;;24.88;28.05;102155.75;4118407;28;20403;-72
2023/05/18 04:50:54;;;;;;;;;;;;;;;24.88;28.30;102161.13;4121225;28;19932;-72
2023/05/18 04:52:56;;;;;;;;;;;;;;;24.90;27.99;102165.56;4114713;28;19922;-72
2023/05/18 04:54:58;;;;;;;;;;;;;;;24.89;28.27;102170.09;4118773;28;19930;-72
2023/05/18 04:57:02;;;;;;;;;;;;;;;24.89;28.15;102170.09;4130668;28;20012;-72
2023/05/18 04:59:03;;;;;;;;;;;;;;;24.90;28.12;102165.56;4125374;28;19933;-72
2023/05/18 05:01:05;;;;;;;;;;;;;;;24.89;28.24;102164.72;4105564;28;20265;-72
2023/05/18 05:03:07;;;;;;;;;;;;;;;24.87;28.15;102164.81;4130730;28;19921;-70
2023/05/18 05:05:09;;;;;;;;;;;;;;;24.88;28.37;102165.69;4118589;28;19945;-70
2023/05/18 05:07:10;;;;;;;;;;;;;;;24.87;28.23;102167.53;4129852;28;19928;-70
2023/05/18 05:09:13;;;;;;;;;;;;;;;24.88;28.35;102171.06;4126598;28;20312;-71
2023/05/18 05:11:15;;;;;;;;;;;;;;;24.88;28.47;102171.06;4121221;28;20008;-71
2023/05/18 05:13:16;;;;;;;;;;;;;;;24.88;28.01;102169.22;4130437;28;19976;-71
2023/05/18 05:15:19;;;;;;;;;;;;;;;24.89;28.21;102180.84;4120666;28;20410;-71
2023/05/18 05:17:21;;;;;;;;;;;;;;;24.90;28.09;102179.88;4128624;28;19922;-70
2023/05/18 05:19:23;;;;;;;;;;;;;;;24.89;28.40;102175.47;4129259;28;20020;-71
2023/05/18 05:21:25;;;;;;;;;;;;;;;24.89;28.29;102167.41;4111889;28;19968;-71
2023/05/18 05:23:26;;;;;;;;;;;;;;;24.90;27.99;102179.00;4133622;28;19922;-70
2023/05/18 05:25:28;;;;;;;;;;;;;;;24.89;28.15;102175.47;4125728;28;19962;-71
2023/05/18 05:27:30;;;;;;;;;;;;;;;24.88;28.36;102177.28;4133547;28;19933;-70
2023/05/18 05:29:31;;;;;;;;;;;;;;;24.88;28.09;102179.13;4130938;28;19922;-70
2023/05/18 05:31:33;;;;;;;;;;;;;;;24.86;28.39;102176.56;4122552;28;20000;-71
2023/05/18 05:33:35;;;;;;;;;;;;;;;24.87;28.37;102177.41;4132999;28;19928;-71
2023/05/18 05:35:36;;;;;;;;;;;;;;;24.87;28.19;102180.97;4129108;28;19933;-71
2023/05/18 05:37:38;;;;;;;;;;;;;;;24.87;28.34;102180.09;4122292;28;19926;-71
2023/05/18 05:39:40;;;;;;;;;;;;;;;24.88;28.39;102182.66;4117452;28;19946;-71
2023/05/18 05:41:42;;;;;;;;;;;;;;;24.88;28.09;102177.28;4128130;28;19962;-71
2023/05/18 05:43:43;;;;;;;;;;;;;;;24.88;27.93;102177.28;4117083;28;20352;-70
2023/05/18 05:45:45;;;;;;;;;;;;;;;24.91;28.30;102186.13;4122223;28;20503;-70
2023/05/18 05:47:48;;;;;;;;;;;;;;;24.90;28.15;102190.66;4123667;28;19926;-71
2023/05/18 05:49:49;;;;;;;;;;;;;;;24.92;28.16;102193.22;4115950;28;20362;-71
2023/05/18 05:51:51;;;;;;;;;;;;;;;24.90;28.20;102195.16;4119830;28;20373;-71
2023/05/18 05:53:52;;;;;;;;;;;;;;;24.90;28.10;102193.34;4133161;28;19922;-71
2023/05/18 05:55:54;;;;;;;;;;;;;;;24.88;28.29;102188.06;4129292;28;20276;-71
2023/05/18 05:57:55;;;;;;;;;;;;;;;24.87;27.93;102190.88;4124719;28;19933;-71
2023/05/18 05:59:57;;;;;;;;;;;;;;;24.87;28.23;102191.75;4131775;28;19928;-71
2023/05/18 06:01:58;;;;;;;;;;;;;;;24.87;28.13;102188.16;4121922;28;19922;-71
2023/05/18 06:04:02;;;;;;;;;;;;;;;24.87;28.01;102189.06;4132006;28;19929;-71
2023/05/18 06:06:04;;;;;;;;;;;;;;;24.89;28.10;102186.22;4130639;28;19921;-71
2023/05/18 06:08:06;;;;;;;;;;;;;;;24.89;28.33;102180.84;4105929;28;20362;-71
2023/05/18 06:10:07;;;;;;;;;;;;;;;24.89;28.29;102188.94;4131869;28;20352;-71
2023/05/18 06:12:09;;;;;;;;;;;;;;;24.90;28.00;102185.28;4123211;28;19992;-71
2023/05/18 06:14:11;;;;;;;;;;;;;;;24.92;28.10;102193.22;4130287;28;19926;-71
2023/05/18 06:16:12;;;;;;;;;;;;;;;24.90;28.30;102187.97;4131113;28;20498;-71
2023/05/18 06:18:14;;;;;;;;;;;;;;;24.89;28.18;102186.22;4121351;28;19949;-71
2023/05/18 06:20:16;;;;;;;;;;;;;;;24.88;27.98;102195.28;4131634;28;20289;-70
2023/05/18 06:22:17;;;;;;;;;;;;;;;24.88;28.22;102188.06;4124525;28;19934;-70
2023/05/18 06:24:19;;;;;;;;;;;;;;;24.88;28.24;102185.34;4128402;28;19922;-70
2023/05/18 06:26:21;;;;;;;;;;;;;;;24.88;28.34;102184.50;4130759;28;19957;-70
2023/05/18 06:28:23;;;;;;;;;;;;;;;24.89;28.24;102188.94;4127455;28;19956;-70
2023/05/18 06:30:24;;;;;;;;;;;;;;;24.90;27.96;102190.66;4115117;28;19931;-70
2023/05/18 06:32:26;;;;;;;;;;;;;;;24.91;28.36;102187.00;4122276;28;19922;-70
2023/05/18 06:34:28;;;;;;;;;;;;;;;24.92;28.06;102185.16;4122155;28;19922;-71
2023/05/18 06:36:30;;;;;;;;;;;;;;;24.92;27.96;102188.69;4117180;28;20322;-70
2023/05/18 06:38:32;;;;;;;;;;;;;;;24.93;28.10;102189.56;4122795;28;19949;-71
2023/05/18 06:40:34;;;;;;;;;;;;;;;24.93;28.10;102193.09;4131897;28;19968;-70
2023/05/18 06:42:35;;;;;;;;;;;;;;;24.93;28.05;102186.88;4127436;28;20285;-70
2023/05/18 06:44:37;;;;;;;;;;;;;;;24.84;28.12;102185.72;4125101;28;19921;-71
2023/05/18 06:46:38;;;;;;;;;;;;;;;24.91;28.24;102192.38;4132024;28;19922;-71
2023/05/18 06:48:43;;;;;;;;;;;;;;;24.92;27.96;102195.91;4129768;28;19934;-71
2023/05/18 06:50:45;;;;;;;;;;;;;;;24.91;28.15;102194.19;4116097;28;19922;-70
2023/05/18 06:52:46;;;;;;;;;;;;;;;24.93;27.83;102194.94;4119543;28;19929;-70
2023/05/18 06:54:48;;;;;;;;;;;;;;;24.94;28.21;102196.66;4124646;28;19922;-70
2023/05/18 06:56:49;;;;;;;;;;;;;;;24.93;27.86;102193.09;4116281;28;19930;-69
2023/05/18 06:58:51;;;;;;;;;;;;;;;24.93;27.93;102193.09;4124402;28;19996;-69
2023/05/18 07:00:53;;;;;;;;;;;;;;;24.94;27.87;102192.13;4116773;28;19972;-68
2023/05/18 07:02:54;;;;;;;;;;;;;;;24.95;27.90;102190.31;4120490;28;19976;-70
2023/05/18 07:04:56;;;;;;;;;;;;;;;24.94;28.07;102194.81;4121832;28;20375;-70
2023/05/18 07:06:58;;;;;;;;;;;;;;;24.95;28.22;102190.31;4132256;28;19929;-70
2023/05/18 07:09:01;;;;;;;;;;;;;;;24.95;28.09;102190.31;4121482;28;19926;-70
2023/05/18 07:11:03;;;;;;;;;;;;;;;24.96;27.95;102197.41;4128886;28;19940;-70
2023/05/18 07:13:05;;;;;;;;;;;;;;;24.76;27.98;102161.19;4130582;28;19929;-69
2023/05/18 07:15:06;;;;;;;;;;;;;;;24.95;28.03;102193.84;4120548;28;19929;-69
2023/05/18 07:17:08;;;;;;;;;;;;;;;24.96;28.19;102192.00;4131650;28;19921;-69
2023/05/18 07:19:10;;;;;;;;;;;;;;;24.97;28.19;102193.72;4123050;28;19965;-68
2023/05/18 07:21:11;;;;;;;;;;;;;;;24.99;27.82;102189.09;4127121;28;19921;-70
2023/05/18 07:23:13;;;;;;;;;;;;;;;24.98;28.04;102190.94;4128987;28;19976;-70
2023/05/18 07:25:15;;;;;;;;;;;;;;;25.00;27.91;102185.44;4120879;28;20008;-70
2023/05/18 07:27:16;;;;;;;;;;;;;;;25.01;28.30;102192.56;4131611;28;19921;-71
2023/05/18 07:29:18;;;;;;;;;;;;;;;25.02;28.14;102191.59;4125984;28;19965;-70
2023/05/18 07:31:20;;;;;;;;;;;;;;;25.00;28.30;102186.28;4121423;28;20312;-70
2023/05/18 07:33:22;;;;;;;;;;;;;;;25.03;28.11;102193.28;4116101;28;20008;-70
2023/05/18 07:35:25;;;;;;;;;;;;;;;25.03;28.05;102193.28;4120486;28;19949;-70
2023/05/18 07:37:26;;;;;;;;;;;;;;;25.03;28.17;102187.91;4131504;28;19933;-72
2023/05/18 07:39:28;;;;;;;;;;;;;;;25.02;27.88;102181.66;4120297;28;20004;-70
2023/05/18 07:41:30;;;;;;;;;;;;;;;25.03;28.18;102180.69;4122127;28;20036;-70
2023/05/18 07:43:32;;;;;;;;;;;;;;;25.05;27.94;102188.66;4115217;28;20036;-70
2023/05/18 07:45:33;;;;;;;;;;;;;;;25.07;28.12;102194.78;4125977;28;20020;-72
2023/05/18 07:47:35;;;;;;;;;;;;;;;25.08;28.00;102190.25;4099453;29;20405;-71
2023/05/18 07:49:38;;;;;;;;;;;;;;;25.10;28.32;102191.00;4108332;28;19981;-70
2023/05/18 07:51:41;;;;;;;;;;;;;;;25.10;28.11;102188.31;4129991;28;19968;-70
2023/05/18 07:53:44;;;;;;;;;;;;;;;25.12;27.72;102181.00;4114356;28;20009;-70
2023/05/18 07:55:46;;;;;;;;;;;;;;;25.12;28.09;102178.31;4125904;28;19945;-70
2023/05/18 07:57:48;;;;;;;;;;;;;;;25.12;27.91;102176.44;4115943;28;19929;-71
2023/05/18 07:59:50;;;;;;;;;;;;;;;25.12;27.98;102175.59;4115444;28;19926;-70
2023/05/18 08:01:51;;;;;;;;;;;;;;;25.13;27.95;102174.59;4125382;28;20240;-70
2023/05/18 08:03:53;;;;;;;;;;;;;;;25.14;27.90;102176.31;4115281;28;19957;-71
2023/05/18 08:05:55;;;;;;;;;;;;;;;25.13;28.16;102178.19;4124137;28;20009;-71
2023/05/18 08:07:56;;;;;;;;;;;;;;;25.14;27.92;102176.31;4117797;28;19929;-72
2023/05/18 08:09:58;;;;;;;;;;;;;;;25.16;28.18;102169.00;4115119;28;19991;-71
2023/05/18 08:11:59;;;;;;;;;;;;;;;25.15;28.37;102176.25;4125946;28;20367;-71
2023/05/18 08:14:01;;;;;;;;;;;;;;;25.18;27.92;102180.53;4114798;28;19977;-72
2023/05/18 08:16:02;;;;;;;;;;;;;;;25.18;28.18;102172.47;4122308;28;19969;-71
2023/05/18 08:18:10;;;;;;;;;;;;;;;25.18;27.82;102176.00;4118777;28;20017;-71
2023/05/18 08:20:12;;;;;;;;;;;;;;;25.20;27.73;102167.78;4115412;28;20287;-69
2023/05/18 08:22:14;;;;;;;;;;;;;;;25.19;27.69;102171.47;4125451;28;19933;-70
2023/05/18 08:24:16;;;;;;;;;;;;;;;25.18;27.79;102165.22;4114884;28;19954;-69
2023/05/18 08:26:17;;;;;;;;;;;;;;;25.19;27.96;102164.25;4123374;28;19961;-71
2023/05/18 08:28:19;;;;;;;;;;;;;;;25.18;28.18;102164.38;4119792;28;20005;-70
2023/05/18 08:30:20;;;;;;;;;;;;;;;25.19;27.79;102160.72;4115048;28;19933;-71
2023/05/18 08:32:22;;;;;;;;;;;;;;;25.20;28.12;102159.72;4108516;28;20004;-71
2023/05/18 08:34:24;;;;;;;;;;;;;;;25.20;27.95;102167.78;4114839;28;19922;-71
2023/05/18 08:36:26;;;;;;;;;;;;;;;25.20;27.91;102155.22;4119698;28;19922;-71
2023/05/18 08:38:27;;;;;;;;;;;;;;;25.19;27.87;102158.88;4127905;28;20041;-71
2023/05/18 08:40:32;;;;;;;;;;;;;;;25.21;27.92;102164.13;4112053;28;19969;-71
2023/05/18 08:42:38;;;;;;;;;;;;;;;25.21;27.85;102150.66;4118612;28;20000;-70
2023/05/18 08:44:57;;;;;;;;;;;;;;;25.22;28.17;102156.94;4130842;28;20016;-69
2023/05/18 08:46:59;;;;;;;;;;;;;;;25.21;27.60;102153.34;4123876;28;19938;-70
2023/05/18 08:49:03;;;;;;;;;;;;;;;25.23;27.83;102158.66;4125231;28;19926;-70
2023/05/18 08:51:05;;;;;;;;;;;;;;;25.21;27.77;102158.75;4128762;28;20323;-70
2023/05/18 08:53:08;;;;;;;;;;;;;;;25.20;27.48;102155.22;4119796;28;20300;-69
2023/05/18 08:55:11;;;;;;;;;;;;;;;25.20;27.59;102155.22;4133522;28;19922;-69
2023/05/18 08:57:13;;;;;;;;;;;;;;;25.20;27.73;102163.28;4127381;28;19988;-71
2023/05/18 08:59:17;;;;;;;;;;;;;;;25.20;27.54;102157.91;4126047;28;19926;-70
2023/05/18 09:01:19;;;;;;;;;;;;;;;25.20;27.38;102162.41;4115289;28;20252;-70
2023/05/18 09:03:20;;;;;;;;;;;;;;;25.19;27.46;102153.47;4122742;28;19945;-70
2023/05/18 09:05:22;;;;;;;;;;;;;;;25.21;27.72;102156.06;4133757;28;20284;-70
2023/05/18 09:07:26;;;;;;;;;;;;;;;25.20;27.70;102159.72;4128838;28;19929;-70
2023/05/18 09:09:28;;;;;;;;;;;;;;;25.20;27.54;102155.22;4125769;28;20265;-70
2023/05/18 09:11:31;;;;;;;;;;;;;;;25.20;27.38;102159.72;4131796;28;19922;-70
2023/05/18 09:13:32;;;;;;;;;;;;;;;25.19;27.43;102166.09;4129341;28;19925;-70
2023/05/18 09:15:34;;;;;;;;;;;;;;;25.18;27.43;102159.84;4100179;28;20013;-70
2023/05/18 09:17:36;;;;;;;;;;;;;;;25.16;27.56;102164.47;4121000;28;19969;-70
2023/05/18 09:19:38;;;;;;;;;;;;;;;25.16;27.20;102163.63;4125224;28;19922;-70
2023/05/18 09:21:39;;;;;;;;;;;;;;;25.15;27.54;102157.41;4117280;28;19964;-71
2023/05/18 09:23:42;;;;;;;;;;;;;;;25.15;27.06;102161.91;4128030;28;19969;-71
2023/05/18 09:25:44;;;;;;;;;;;;;;;25.14;27.18;102154.78;4121312;28;19968;-70
2023/05/18 09:27:50;;;;;;;;;;;;;;;25.14;27.32;102158.38;4129604;28;19929;-70
2023/05/18 09:29:53;;;;;;;;;;;;;;;25.16;26.99;102161.78;4125630;28;19925;-70
2023/05/18 09:31:54;;;;;;;;;;;;;;;25.15;27.17;102153.81;4117487;28;20021;-70
2023/05/18 09:33:57;;;;;;;;;;;;;;;25.16;27.30;102156.41;4127056;28;19921;-70
2023/05/18 09:35:59;;;;;;;;;;;;;;;25.16;27.23;102158.25;4133382;28;19929;-70
2023/05/18 09:38:04;;;;;;;;;;;;;;;25.16;27.18;102164.47;4128928;28;19972;-70
2023/05/18 09:40:07;;;;;;;;;;;;;;;25.15;26.97;102157.41;4125977;28;19922;-69
2023/05/18 09:42:08;;;;;;;;;;;;;;;25.15;27.30;102167.28;4117096;28;20014;-70
2023/05/18 09:44:11;;;;;;;;;;;;;;;25.14;27.02;102158.38;4126132;28;19928;-71
2023/05/18 09:46:13;;;;;;;;;;;;;;;25.15;27.20;102156.50;4119664;28;20402;-69
2023/05/18 09:48:15;;;;;;;;;;;;;;;25.16;27.39;102152.84;4118402;28;20384;-70
2023/05/18 09:50:20;;;;;;;;;;;;;;;25.16;27.38;102151.00;4126679;28;20005;-70
2023/05/18 09:52:21;;;;;;;;;;;;;;;25.18;27.42;102159.00;4117192;28;19976;-69
2023/05/18 09:54:23;;;;;;;;;;;;;;;25.17;27.37;102147.34;4124585;28;19968;-70
2023/05/18 09:56:25;;;;;;;;;;;;;;;25.20;27.40;102148.94;4120686;28;20257;-70
2023/05/18 09:58:30;;;;;;;;;;;;;;;25.19;27.19;102145.41;4117976;28;20000;-71
2023/05/18 10:00:35;;;;;;;;;;;;;;;25.19;27.13;102142.72;4126622;28;20306;-70
2023/05/18 10:02:39;;;;;;;;;;;;;;;25.19;27.17;102148.09;4117027;28;20035;-71
2023/05/18 10:04:41;;;;;;;;;;;;;;;25.20;27.08;102143.56;4123679;28;19976;-71
2023/05/18 10:06:48;;;;;;;;;;;;;;;25.18;27.35;102142.84;4120946;28;19965;-70
2023/05/18 10:08:49;;;;;;;;;;;;;;;25.19;27.07;102137.31;4117858;28;19922;-71
2023/05/18 10:10:51;;;;;;;;;;;;;;;25.20;27.12;102138.19;4126530;28;20004;-71
2023/05/18 10:12:53;;;;;;;;;;;;;;;25.20;27.24;102132.78;4116681;28;20000;-71
2023/05/18 10:14:55;;;;;;;;;;;;;;;25.19;27.46;102131.09;4123288;28;20013;-71
2023/05/18 10:16:56;;;;;;;;;;;;;;;25.20;27.08;102122.03;4131147;28;19921;-70
2023/05/18 10:19:15;;;;;;;;;;;;;;;25.22;27.03;102138.94;4117614;28;19928;-71
2023/05/18 10:21:18;;;;;;;;;;;;;;;25.21;27.12;102139.91;4126671;28;19980;-71
2023/05/18 10:23:20;;;;;;;;;;;;;;;25.22;27.04;102127.31;4116040;28;20414;-69
2023/05/18 10:25:24;;;;;;;;;;;;;;;25.23;27.47;102137.13;4124187;28;20395;-70
2023/05/18 10:27:27;;;;;;;;;;;;;;;25.24;27.17;102133.41;4132671;28;20350;-70